createdAt,value
2023-03-27T00:01:18.259Z,30.65
2023-03-27T00:03:49.352Z,30.10
2023-03-27T00:06:17.513Z,30.23
2023-03-27T00:08:51.483Z,30.63
2023-03-27T00:11:21.901Z,32.08
2023-03-27T00:13:51.425Z,32.72
2023-03-27T00:16:23.993Z,34.55
2023-03-27T00:18:51.349Z,36.15
2023-03-27T00:21:17.913Z,35.60
2023-03-27T00:23:44.515Z,38.78
2023-03-27T00:26:12.128Z,44.70
2023-03-27T00:28:39.294Z,43.70
2023-03-27T00:31:11.661Z,40.17
2023-03-27T00:33:38.577Z,41.33
2023-03-27T00:36:06.237Z,43.80
2023-03-27T00:38:33.943Z,48.83
2023-03-27T00:41:01.267Z,62.17
2023-03-27T00:43:36.296Z,66.03
2023-03-27T00:46:08.051Z,63.92
2023-03-27T00:48:37.721Z,65.35
2023-03-27T00:51:06.011Z,70.43
2023-03-27T00:53:33.595Z,72.70
2023-03-27T00:56:03.754Z,82.85
2023-03-27T00:58:37.327Z,79.93
2023-03-27T01:01:04.004Z,84.18
2023-03-27T01:03:32.890Z,85.38
2023-03-27T01:06:03.776Z,84.97
2023-03-27T01:08:33.854Z,85.90
2023-03-27T01:11:23.828Z,84.90
2023-03-27T01:14:15.679Z,83.57
2023-03-27T01:17:13.050Z,82.63
2023-03-27T01:20:07.196Z,76.75
2023-03-27T01:23:02.659Z,75.47
2023-03-27T01:25:50.274Z,76.05
2023-03-27T01:28:23.873Z,73.43
2023-03-27T01:30:56.449Z,72.30
2023-03-27T01:33:35.008Z,71.95
2023-03-27T01:36:25.033Z,70.43
2023-03-27T01:39:11.065Z,69.85
2023-03-27T01:42:06.292Z,63.13
2023-03-27T01:44:43.203Z,56.70
2023-03-27T01:47:51.187Z,58.10
2023-03-27T01:52:56.334Z,44.72
2023-03-27T01:55:28.127Z,48.70
2023-03-27T01:58:03.202Z,45.95
2023-03-27T02:00:51.936Z,48.00
2023-03-27T02:03:22.714Z,47.00
2023-03-27T02:06:00.633Z,40.75
2023-03-27T02:08:40.534Z,40.17
2023-03-27T02:11:07.761Z,38.30
2023-03-27T02:13:39.788Z,40.17
2023-03-27T02:16:10.835Z,35.45
2023-03-27T02:18:47.592Z,35.92
2023-03-27T02:21:15.324Z,34.38
2023-03-27T02:23:42.137Z,33.22
2023-03-27T02:26:13.139Z,33.90
2023-03-27T02:29:01.615Z,32.20
2023-03-27T02:31:40.424Z,32.25
2023-03-27T02:34:21.974Z,32.03
2023-03-27T02:36:57.654Z,32.20
2023-03-27T02:39:38.199Z,31.40
2023-03-27T02:42:13.416Z,31.42
2023-03-27T02:45:08.304Z,32.45
2023-03-27T02:47:43.928Z,30.38
2023-03-27T02:50:21.896Z,31.90
2023-03-27T02:52:53.540Z,31.15
2023-03-27T02:55:33.258Z,30.85
2023-03-27T02:58:19.792Z,31.63
2023-03-27T03:00:50.408Z,30.30
2023-03-27T03:03:28.062Z,30.90
2023-03-27T03:05:56.645Z,29.88
2023-03-27T03:08:24.176Z,30.42
2023-03-27T03:10:50.858Z,29.98
2023-03-27T03:13:18.139Z,29.67
2023-03-27T03:15:49.542Z,29.50
2023-03-27T03:18:17.118Z,29.77
2023-03-27T03:20:44.480Z,30.23
2023-03-27T03:23:11.124Z,29.50
2023-03-27T03:25:37.700Z,29.48
2023-03-27T03:28:08.146Z,29.27
2023-03-27T03:30:34.806Z,29.67
2023-03-27T03:33:01.409Z,29.77
2023-03-27T03:35:28.251Z,29.58
2023-03-27T03:37:54.842Z,30.10
2023-03-27T03:40:21.506Z,30.25
2023-03-27T03:42:52.607Z,29.35
2023-03-27T03:45:19.913Z,30.25
2023-03-27T03:47:46.772Z,30.95
2023-03-27T03:50:14.189Z,31.73
2023-03-27T03:52:41.757Z,30.95
2023-03-27T03:55:11.917Z,32.10
2023-03-27T03:57:38.547Z,32.00
2023-03-27T04:00:11.558Z,31.42
2023-03-27T04:02:40.692Z,33.15
2023-03-27T04:05:09.075Z,32.35
2023-03-27T04:07:36.484Z,33.33
2023-03-27T04:10:04.002Z,35.13
2023-03-27T04:12:30.604Z,33.30
2023-03-27T04:14:57.355Z,34.05
2023-03-27T04:17:26.293Z,34.10
2023-03-27T04:19:57.287Z,32.50
2023-03-27T04:22:24.085Z,33.22
2023-03-27T04:24:50.834Z,33.42
2023-03-27T04:27:18.825Z,33.85
2023-03-27T04:29:47.339Z,33.65
2023-03-27T04:32:19.244Z,32.92
2023-03-27T04:34:48.250Z,33.40
2023-03-27T04:37:15.245Z,33.08
2023-03-27T04:39:46.472Z,31.30
2023-03-27T04:42:16.450Z,31.80
2023-03-27T04:44:46.502Z,32.85
2023-03-27T04:47:13.290Z,36.28
2023-03-27T04:49:46.708Z,36.33
2023-03-27T04:52:16.459Z,36.50
2023-03-27T04:54:43.871Z,34.45
2023-03-27T04:57:11.309Z,34.30
2023-03-27T04:59:37.905Z,34.65
2023-03-27T05:02:06.493Z,33.83
2023-03-27T05:04:33.625Z,33.95
2023-03-27T05:07:00.776Z,36.22
2023-03-27T05:09:27.505Z,34.53
2023-03-27T05:11:54.360Z,36.58
2023-03-27T05:14:23.478Z,36.78
2023-03-27T05:16:52.303Z,36.33
2023-03-27T05:19:20.173Z,34.47
2023-03-27T05:21:47.514Z,35.45
2023-03-27T05:24:15.531Z,33.00
2023-03-27T05:26:43.297Z,33.42
2023-03-27T05:29:10.252Z,33.47
2023-03-27T05:31:37.422Z,32.25
2023-03-27T05:34:04.270Z,33.53
2023-03-27T05:36:30.834Z,33.70
2023-03-27T05:38:58.092Z,34.67
2023-03-27T05:41:25.043Z,34.97
2023-03-27T05:43:51.803Z,36.63
2023-03-27T05:46:20.751Z,36.30
2023-03-27T05:48:48.500Z,34.70
2023-03-27T05:51:15.963Z,36.95
2023-03-27T05:53:43.056Z,36.85
2023-03-27T05:56:10.530Z,36.80
2023-03-27T05:58:37.520Z,36.88
2023-03-27T06:01:04.804Z,36.90
2023-03-27T06:03:31.551Z,37.97
2023-03-27T06:06:01.020Z,36.55
2023-03-27T06:08:29.475Z,34.72
2023-03-27T06:10:56.234Z,33.42
2023-03-27T06:13:24.161Z,32.33
2023-03-27T06:15:54.087Z,31.05
2023-03-27T06:18:21.033Z,29.80
2023-03-27T06:20:47.623Z,29.17
2023-03-27T06:23:14.489Z,28.85
2023-03-27T06:25:41.373Z,29.05
2023-03-27T06:28:09.333Z,29.27
2023-03-27T06:30:38.321Z,28.10
2023-03-27T06:33:06.198Z,28.42
2023-03-27T06:35:34.107Z,28.52
2023-03-27T06:38:02.758Z,29.45
2023-03-27T06:40:31.468Z,30.42
2023-03-27T06:43:09.018Z,30.10
2023-03-27T06:45:42.998Z,29.92
2023-03-27T06:48:13.603Z,28.98
2023-03-27T06:50:45.224Z,28.80
2023-03-27T06:53:25.779Z,29.10
2023-03-27T06:55:53.696Z,27.70
2023-03-27T06:58:20.502Z,28.33
2023-03-27T07:00:49.852Z,28.15
2023-03-27T07:03:17.974Z,28.40
2023-03-27T07:05:45.198Z,27.63
2023-03-27T07:08:23.399Z,27.02
2023-03-27T07:11:09.805Z,27.10
2023-03-27T07:13:38.086Z,27.92
2023-03-27T07:16:05.390Z,26.92
2023-03-27T07:18:32.221Z,26.55
2023-03-27T07:20:59.267Z,26.67
2023-03-27T07:23:26.670Z,27.10
2023-03-27T07:26:00.576Z,26.65
2023-03-27T07:28:27.804Z,28.02
2023-03-27T07:30:54.408Z,27.75
2023-03-27T07:33:21.184Z,27.63
2023-03-27T07:35:48.605Z,27.15
2023-03-27T07:38:16.628Z,26.38
2023-03-27T07:40:46.096Z,27.17
2023-03-27T07:43:13.448Z,27.40
2023-03-27T07:45:41.275Z,27.15
2023-03-27T07:48:10.371Z,27.27
2023-03-27T07:50:37.750Z,27.52
2023-03-27T07:53:06.495Z,27.27
2023-03-27T07:55:33.703Z,26.55
2023-03-27T07:58:02.889Z,26.75
2023-03-27T08:00:31.346Z,26.42
2023-03-27T08:03:10.030Z,27.83
2023-03-27T08:05:37.923Z,27.20
2023-03-27T08:08:05.062Z,26.70
2023-03-27T08:10:31.876Z,26.67
2023-03-27T08:12:58.419Z,26.88
2023-03-27T08:15:25.532Z,26.67
2023-03-27T08:17:54.860Z,25.67
2023-03-27T08:20:23.901Z,25.50
2023-03-27T08:22:52.589Z,25.75
2023-03-27T08:25:22.361Z,25.27
2023-03-27T08:27:49.349Z,25.13
2023-03-27T08:30:17.200Z,24.95
2023-03-27T08:32:44.271Z,24.05
2023-03-27T08:35:10.922Z,24.75
2023-03-27T08:37:37.727Z,24.70
2023-03-27T08:40:11.060Z,25.38
2023-03-27T08:42:42.291Z,25.90
2023-03-27T08:45:18.882Z,27.45
2023-03-27T08:47:56.606Z,27.20
2023-03-27T08:50:46.553Z,28.90
2023-03-27T08:53:34.248Z,28.65
2023-03-27T08:56:01.304Z,29.83
2023-03-27T08:58:27.895Z,29.38
2023-03-27T09:01:07.024Z,31.80
2023-03-27T09:03:45.171Z,33.05
2023-03-27T09:06:34.203Z,33.53
2023-03-27T09:09:15.295Z,35.90
2023-03-27T09:11:54.934Z,40.53
2023-03-27T09:14:47.972Z,43.38
2023-03-27T09:17:26.543Z,39.40
2023-03-27T09:20:10.566Z,35.35
2023-03-27T09:22:44.286Z,34.55
2023-03-27T09:25:29.003Z,33.73
2023-03-27T09:27:56.253Z,37.17
2023-03-27T09:30:27.066Z,45.08
2023-03-27T09:32:58.372Z,47.30
2023-03-27T09:35:25.302Z,47.20
2023-03-27T09:37:58.608Z,55.28
2023-03-27T09:40:33.862Z,48.60
2023-03-27T09:43:08.710Z,41.85
2023-03-27T09:45:40.688Z,40.35
2023-03-27T09:48:15.456Z,43.35
2023-03-27T09:50:46.179Z,37.95
2023-03-27T09:53:23.040Z,36.97
2023-03-27T09:55:58.822Z,32.65
2023-03-27T09:58:31.989Z,31.63
2023-03-27T10:01:17.018Z,31.92
2023-03-27T10:06:30.665Z,29.60
2023-03-27T10:09:02.089Z,31.90
2023-03-27T10:11:33.011Z,33.03
2023-03-27T10:14:01.684Z,35.10
2023-03-27T10:16:29.845Z,35.70
2023-03-27T10:18:59.836Z,36.97
2023-03-27T10:21:28.300Z,38.47
2023-03-27T10:24:06.650Z,40.25
2023-03-27T10:26:37.063Z,34.08
2023-03-27T10:29:22.362Z,32.75
2023-03-27T10:31:52.639Z,32.95
2023-03-27T10:34:38.494Z,31.63
2023-03-27T10:37:27.321Z,33.30
2023-03-27T10:40:00.048Z,39.13
2023-03-27T10:42:31.311Z,43.85
2023-03-27T10:44:59.263Z,44.45
2023-03-27T10:47:30.914Z,45.00
2023-03-27T10:50:03.924Z,45.53
2023-03-27T10:52:38.905Z,48.92
2023-03-27T10:55:05.486Z,50.75
2023-03-27T10:57:38.179Z,51.78
2023-03-27T11:00:21.171Z,54.65
2023-03-27T11:02:57.548Z,53.90
2023-03-27T11:05:36.357Z,53.05
2023-03-27T11:08:05.654Z,53.78
2023-03-27T11:10:46.941Z,55.65
2023-03-27T11:13:31.203Z,54.45
2023-03-27T11:16:19.407Z,53.05
2023-03-27T11:18:54.147Z,49.90
2023-03-27T11:21:55.868Z,49.25
2023-03-27T11:24:34.976Z,49.22
2023-03-27T11:27:17.037Z,52.58
2023-03-27T11:29:58.839Z,47.90
2023-03-27T11:32:41.130Z,43.65
2023-03-27T11:35:15.903Z,44.40
2023-03-27T11:37:59.639Z,45.25
2023-03-27T11:40:35.272Z,48.97
2023-03-27T11:43:02.606Z,51.95
2023-03-27T11:45:41.088Z,55.05
2023-03-27T11:48:16.357Z,59.50
2023-03-27T11:51:10.648Z,59.78
2023-03-27T11:53:39.936Z,59.88
2023-03-27T11:56:15.500Z,60.10
2023-03-27T11:59:05.625Z,68.47
2023-03-27T12:01:37.469Z,65.68
2023-03-27T12:04:40.068Z,61.67
2023-03-27T12:07:35.860Z,49.47
2023-03-27T12:10:34.030Z,46.65
2023-03-27T12:13:18.883Z,42.95
2023-03-27T12:16:19.166Z,39.03
2023-03-27T12:19:03.822Z,33.47
2023-03-27T12:22:00.736Z,32.97
2023-03-27T12:24:57.038Z,31.63
2023-03-27T12:27:37.381Z,31.48
2023-03-27T12:30:24.729Z,29.80
2023-03-27T12:33:07.110Z,30.35
2023-03-27T12:35:41.531Z,30.88
2023-03-27T12:38:39.028Z,30.13
2023-03-27T12:41:05.860Z,27.83
2023-03-27T12:43:40.721Z,27.83
2023-03-27T12:46:13.819Z,26.42
2023-03-27T12:49:07.602Z,26.20
2023-03-27T12:51:51.838Z,25.65
2023-03-27T12:54:31.191Z,25.23
2023-03-27T12:57:08.266Z,23.90
2023-03-27T12:59:49.977Z,41.83
2023-03-27T13:02:31.608Z,48.58
2023-03-27T13:05:26.920Z,49.22
2023-03-27T13:08:14.375Z,38.17
2023-03-27T13:10:59.072Z,31.25
2023-03-27T13:13:44.832Z,32.28
2023-03-27T13:16:36.329Z,31.48
2023-03-27T13:19:14.863Z,31.00
2023-03-27T13:22:26.117Z,29.80
2023-03-27T13:25:01.833Z,29.58
2023-03-27T13:27:47.728Z,30.08
2023-03-27T13:30:42.818Z,28.98
2023-03-27T13:33:30.022Z,30.52
2023-03-27T13:36:20.612Z,30.45
2023-03-27T13:38:56.629Z,31.45
2023-03-27T13:41:44.681Z,32.25
2023-03-27T13:44:43.583Z,38.13
2023-03-27T13:47:35.012Z,32.70
2023-03-27T13:50:29.826Z,33.10
2023-03-27T13:53:15.418Z,32.75
2023-03-27T13:56:15.263Z,38.83
2023-03-27T13:59:05.440Z,33.45
2023-03-27T14:01:54.000Z,35.35
2023-03-27T14:04:52.499Z,37.33
2023-03-27T14:07:43.914Z,35.53
2023-03-27T14:10:31.369Z,35.83
2023-03-27T14:13:18.116Z,44.33
2023-03-27T14:16:08.765Z,41.65
2023-03-27T14:19:12.321Z,41.60
2023-03-27T14:22:23.546Z,46.65
2023-03-27T14:24:58.695Z,42.05
2023-03-27T14:27:26.431Z,48.35
2023-03-27T14:30:17.011Z,50.30
2023-03-27T14:32:44.443Z,45.65
2023-03-27T14:35:36.073Z,47.15
2023-03-27T14:38:16.800Z,49.30
2023-03-27T14:40:47.581Z,48.05
2023-03-27T14:43:17.808Z,45.95
2023-03-27T14:45:45.103Z,45.45
2023-03-27T14:48:37.157Z,37.15
2023-03-27T14:51:09.490Z,27.73
2023-03-27T14:53:44.435Z,28.55
2023-03-27T14:56:26.391Z,32.20
2023-03-27T14:58:56.606Z,25.83
2023-03-27T15:01:23.305Z,25.48
2023-03-27T15:03:53.020Z,26.33
2023-03-27T15:06:23.302Z,56.85
2023-03-27T15:08:59.934Z,25.33
2023-03-27T15:11:37.316Z,28.13
2023-03-27T15:14:05.037Z,28.02
2023-03-27T15:16:35.834Z,27.52
2023-03-27T15:19:05.075Z,26.70
2023-03-27T15:21:47.199Z,32.63
2023-03-27T15:24:52.584Z,30.92
2023-03-27T15:27:25.644Z,32.60
2023-03-27T15:30:01.251Z,32.22
2023-03-27T15:32:42.331Z,32.53
2023-03-27T15:35:15.753Z,34.35
2023-03-27T15:37:42.865Z,52.83
2023-03-27T15:40:10.970Z,31.20
2023-03-27T15:42:52.916Z,31.48
2023-03-27T15:45:34.311Z,27.98
2023-03-27T15:48:05.604Z,26.90
2023-03-27T15:50:33.999Z,38.78
2023-03-27T15:53:02.292Z,31.65
2023-03-27T15:55:47.734Z,31.55
2023-03-27T15:58:26.692Z,24.25
2023-03-27T16:00:59.551Z,24.15
2023-03-27T16:03:27.637Z,23.60
2023-03-27T16:05:58.197Z,23.05
2023-03-27T16:08:34.014Z,23.50
2023-03-27T16:11:01.604Z,22.73
2023-03-27T16:13:37.250Z,26.05
2023-03-27T16:16:21.395Z,21.75
2023-03-27T16:18:49.312Z,21.30
2023-03-27T16:21:16.100Z,20.95
2023-03-27T16:23:43.983Z,20.75
2023-03-27T16:26:16.021Z,22.35
2023-03-27T16:28:42.956Z,22.25
2023-03-27T16:31:18.328Z,20.80
2023-03-27T16:33:46.299Z,21.98
2023-03-27T16:36:16.069Z,21.08
2023-03-27T16:38:43.853Z,21.65
2023-03-27T16:41:15.280Z,21.88
2023-03-27T16:43:43.077Z,20.90
2023-03-27T16:46:23.284Z,26.25
2023-03-27T16:48:51.362Z,21.48
2023-03-27T16:51:19.377Z,20.88
2023-03-27T16:53:46.113Z,20.50
2023-03-27T16:56:12.891Z,20.48
2023-03-27T16:58:40.301Z,20.92
2023-03-27T17:01:08.789Z,20.55
2023-03-27T17:03:37.170Z,20.83
2023-03-27T17:06:06.637Z,20.08
2023-03-27T17:08:33.545Z,20.50
2023-03-27T17:11:06.652Z,20.55
2023-03-27T17:13:33.604Z,20.63
2023-03-27T17:16:00.449Z,20.70
2023-03-27T17:18:27.207Z,20.35
2023-03-27T17:20:53.997Z,20.20
2023-03-27T17:23:20.840Z,20.77
2023-03-27T17:25:48.412Z,21.17
2023-03-27T17:28:15.317Z,21.70
2023-03-27T17:30:56.368Z,22.02
2023-03-27T17:33:28.608Z,21.67
2023-03-27T17:35:57.240Z,22.27
2023-03-27T17:38:24.370Z,23.95
2023-03-27T17:40:51.741Z,22.15
2023-03-27T17:43:18.489Z,21.38
2023-03-27T17:45:45.488Z,22.38
2023-03-27T17:48:12.096Z,21.02
2023-03-27T17:50:39.626Z,21.30
2023-03-27T17:53:06.994Z,21.55
2023-03-27T17:55:36.858Z,21.25
2023-03-27T17:58:09.272Z,21.30
2023-03-27T18:00:37.853Z,21.27
2023-03-27T18:03:04.980Z,22.35
2023-03-27T18:05:36.590Z,21.38
2023-03-27T18:08:03.636Z,21.10
2023-03-27T18:10:30.277Z,21.92
2023-03-27T18:12:59.086Z,20.92
2023-03-27T18:15:25.625Z,20.80
2023-03-27T18:17:52.816Z,21.35
2023-03-27T18:20:19.463Z,20.58
2023-03-27T18:22:46.075Z,20.02
2023-03-27T18:25:12.712Z,20.30
2023-03-27T18:27:43.395Z,20.42
2023-03-27T18:30:13.373Z,19.52
2023-03-27T18:32:42.619Z,20.55
2023-03-27T18:35:14.011Z,20.40
2023-03-27T18:37:42.545Z,20.42
2023-03-27T18:40:11.777Z,19.75
2023-03-27T18:42:40.440Z,19.80
2023-03-27T18:45:08.538Z,20.27
2023-03-27T18:47:36.304Z,19.75
2023-03-27T18:50:05.102Z,19.83
2023-03-27T18:52:32.052Z,19.58
2023-03-27T18:54:58.786Z,18.83
2023-03-27T18:57:25.632Z,18.95
2023-03-27T18:59:52.487Z,18.98
2023-03-27T19:02:19.168Z,18.23
2023-03-27T19:04:47.895Z,18.38
2023-03-27T19:07:16.384Z,19.05
2023-03-27T19:09:43.537Z,18.90
2023-03-27T19:12:11.051Z,19.20
2023-03-27T19:14:37.748Z,18.45
2023-03-27T19:17:05.295Z,18.63
2023-03-27T19:19:33.655Z,19.67
2023-03-27T19:22:00.408Z,18.92
2023-03-27T19:24:27.198Z,19.42
2023-03-27T19:26:53.801Z,18.40
2023-03-27T19:29:20.417Z,18.77
2023-03-27T19:31:47.026Z,19.23
2023-03-27T19:34:13.764Z,19.08
2023-03-27T19:36:40.525Z,18.80
2023-03-27T19:39:07.181Z,18.60
2023-03-27T19:41:33.740Z,19.60
2023-03-27T19:44:00.663Z,18.95
2023-03-27T19:46:28.467Z,19.60
2023-03-27T19:48:55.865Z,19.20
2023-03-27T19:51:22.905Z,18.83
2023-03-27T19:53:50.044Z,20.05
2023-03-27T19:56:16.992Z,19.90
2023-03-27T19:58:43.613Z,18.85
2023-03-27T20:01:10.275Z,18.90
2023-03-27T20:03:38.474Z,19.23
2023-03-27T20:06:12.895Z,18.70
2023-03-27T20:08:41.002Z,18.75
2023-03-27T20:11:07.753Z,18.50
2023-03-27T20:13:42.386Z,18.55
2023-03-27T20:16:15.090Z,18.48
2023-03-27T20:18:42.771Z,18.40
2023-03-27T20:21:13.478Z,18.42
2023-03-27T20:23:42.056Z,18.50
2023-03-27T20:26:09.315Z,18.60
2023-03-27T20:28:36.297Z,19.13
2023-03-27T20:31:05.360Z,18.90
2023-03-27T20:33:32.193Z,18.15
2023-03-27T20:35:59.072Z,18.55
2023-03-27T20:38:29.646Z,18.42
2023-03-27T20:40:56.403Z,18.92
2023-03-27T20:43:23.164Z,18.77
2023-03-27T20:45:54.984Z,18.98
2023-03-27T20:48:22.225Z,18.38
2023-03-27T20:50:55.352Z,18.90
2023-03-27T20:53:26.284Z,18.90
2023-03-27T20:56:00.679Z,18.63
2023-03-27T20:58:28.209Z,18.88
2023-03-27T21:00:56.787Z,19.13
2023-03-27T21:03:23.434Z,18.55
2023-03-27T21:05:50.687Z,18.98
2023-03-27T21:08:17.274Z,18.77
2023-03-27T21:10:53.125Z,18.92
2023-03-27T21:13:20.241Z,18.75
2023-03-27T21:15:46.971Z,17.85
2023-03-27T21:18:13.576Z,18.13
2023-03-27T21:20:40.216Z,18.45
2023-03-27T21:23:06.772Z,18.08
2023-03-27T21:25:34.922Z,20.10
2023-03-27T21:28:01.627Z,18.33
2023-03-27T21:30:46.698Z,18.25
2023-03-27T21:33:16.206Z,18.65
2023-03-27T21:35:45.749Z,18.33
2023-03-27T21:38:13.833Z,18.27
2023-03-27T21:40:41.006Z,18.40
2023-03-27T21:43:08.936Z,18.27
2023-03-27T21:45:36.424Z,18.75
2023-03-27T21:48:03.507Z,18.48
2023-03-27T21:50:30.389Z,18.73
2023-03-27T21:52:57.418Z,19.08
2023-03-27T21:55:24.033Z,18.80
2023-03-27T21:57:51.919Z,18.58
2023-03-27T22:00:19.876Z,18.63
2023-03-27T22:02:46.508Z,18.85
2023-03-27T22:05:13.312Z,18.23
2023-03-27T22:07:39.990Z,18.35
2023-03-27T22:10:07.046Z,17.95
2023-03-27T22:12:37.703Z,18.60
2023-03-27T22:15:06.326Z,18.75
2023-03-27T22:17:34.869Z,19.25
2023-03-27T22:20:01.495Z,18.30
2023-03-27T22:22:28.051Z,19.52
2023-03-27T22:24:54.612Z,18.77
2023-03-27T22:27:21.176Z,18.23
2023-03-27T22:29:47.751Z,18.60
2023-03-27T22:32:14.373Z,19.65
2023-03-27T22:34:40.922Z,19.30
2023-03-27T22:37:07.586Z,18.95
2023-03-27T22:39:34.144Z,18.83
2023-03-27T22:42:00.928Z,18.88
2023-03-27T22:44:31.098Z,18.25
2023-03-27T22:46:58.897Z,18.98
2023-03-27T22:49:26.085Z,18.70
2023-03-27T22:51:52.726Z,19.83
2023-03-27T22:54:19.429Z,18.55
2023-03-27T22:56:47.089Z,18.10
2023-03-27T22:59:14.895Z,18.35
2023-03-27T23:01:41.553Z,18.60
2023-03-27T23:04:09.153Z,19.65
2023-03-27T23:06:35.760Z,18.70
2023-03-27T23:09:02.338Z,18.58
2023-03-27T23:11:28.929Z,18.38
2023-03-27T23:13:55.583Z,18.70
2023-03-27T23:16:22.232Z,18.73
2023-03-27T23:18:48.790Z,18.98
2023-03-27T23:21:18.276Z,18.10
2023-03-27T23:23:45.383Z,18.63
2023-03-27T23:26:12.879Z,19.73
2023-03-27T23:28:41.897Z,18.38
2023-03-27T23:31:12.893Z,19.75
2023-03-27T23:33:44.273Z,19.10
2023-03-27T23:36:13.888Z,19.30
2023-03-27T23:38:42.056Z,19.35
2023-03-27T23:41:10.892Z,19.17
2023-03-27T23:43:37.821Z,18.83
2023-03-27T23:46:08.609Z,18.88
2023-03-27T23:48:35.429Z,18.90
2023-03-27T23:51:02.669Z,19.95
2023-03-27T23:53:30.536Z,19.42
2023-03-27T23:55:58.996Z,18.70
2023-03-27T23:58:28.852Z,19.08
